createdAt,value
2023-04-28T00:00:31.852Z,0.00
2023-04-28T00:01:32.390Z,0.00
2023-04-28T00:02:34.076Z,0.00
2023-04-28T00:03:33.716Z,0.00
2023-04-28T00:03:42.471Z,0.00
2023-04-28T00:04:42.892Z,0.00
2023-04-28T00:05:43.080Z,0.00
2023-04-28T00:06:43.653Z,0.00
2023-04-28T00:07:44.384Z,0.00
2023-04-28T00:08:44.973Z,0.00
2023-04-28T00:09:45.534Z,0.00
2023-04-28T00:10:46.249Z,0.00
2023-04-28T00:11:46.839Z,0.00
2023-04-28T00:12:47.383Z,0.00
2023-04-28T00:13:48.924Z,0.00
2023-04-28T00:14:48.883Z,0.00
2023-04-28T00:14:57.544Z,0.00
2023-04-28T00:15:58.308Z,0.00
2023-04-28T00:16:59.045Z,0.00
2023-04-28T00:18:00.050Z,0.00
2023-04-28T00:19:00.573Z,0.00
2023-04-28T00:20:01.049Z,0.00
2023-04-28T00:21:01.597Z,0.00
2023-04-28T00:22:02.256Z,0.00
2023-04-28T00:23:02.775Z,0.00
2023-04-28T00:24:03.358Z,0.00
2023-04-28T00:25:04.017Z,0.00
2023-04-28T00:26:04.528Z,0.00
2023-04-28T00:26:13.172Z,0.00
2023-04-28T00:27:13.157Z,0.00
2023-04-28T00:28:18.321Z,0.00
2023-04-28T00:29:14.474Z,0.00
2023-04-28T00:30:15.114Z,0.00
2023-04-28T00:31:15.724Z,0.00
2023-04-28T00:32:15.877Z,0.00
2023-04-28T00:33:16.512Z,0.00
2023-04-28T00:34:17.425Z,0.00
2023-04-28T00:35:17.773Z,0.00
2023-04-28T00:36:25.379Z,0.00
2023-04-28T00:37:19.031Z,0.00
2023-04-28T00:37:28.637Z,0.00
2023-04-28T00:38:29.222Z,0.00
2023-04-28T00:39:29.906Z,0.00
2023-04-28T00:40:31.396Z,0.00
2023-04-28T00:41:30.887Z,0.00
2023-04-28T00:42:31.438Z,0.00
2023-04-28T00:43:31.972Z,0.00
2023-04-28T00:44:32.666Z,0.00
2023-04-28T00:45:33.740Z,0.00
2023-04-28T00:46:34.245Z,0.00
2023-04-28T00:47:34.928Z,0.00
2023-04-28T00:47:43.653Z,0.00
2023-04-28T00:48:44.113Z,0.00
2023-04-28T00:49:44.212Z,0.00
2023-04-28T00:50:44.689Z,0.00
2023-04-28T00:51:45.221Z,0.00
2023-04-28T00:52:45.823Z,0.00
2023-04-28T00:53:46.360Z,0.00
2023-04-28T00:54:46.936Z,0.00
2023-04-28T00:55:47.537Z,0.00
2023-04-28T00:56:48.393Z,0.00
2023-04-28T00:57:49.108Z,0.00
2023-04-28T00:57:57.788Z,0.00
2023-04-28T00:58:58.437Z,0.00
2023-04-28T00:59:59.013Z,0.00
2023-04-28T01:00:59.629Z,0.00
2023-04-28T01:02:00.272Z,0.00
2023-04-28T01:03:01.366Z,0.00
2023-04-28T01:04:01.927Z,0.00
2023-04-28T01:05:02.490Z,0.00
2023-04-28T01:06:03.011Z,0.00
2023-04-28T01:07:03.621Z,0.00
2023-04-28T01:08:04.450Z,0.00
2023-04-28T01:09:05.142Z,0.00
2023-04-28T01:09:13.762Z,0.00
2023-04-28T01:10:14.680Z,0.00
2023-04-28T01:11:15.433Z,0.00
2023-04-28T01:12:16.018Z,0.00
2023-04-28T01:13:16.375Z,0.00
2023-04-28T01:14:17.277Z,0.00
2023-04-28T01:15:17.261Z,0.00
2023-04-28T01:16:17.892Z,0.00
2023-04-28T01:17:18.696Z,0.00
2023-04-28T01:18:18.779Z,0.00
2023-04-28T01:19:19.456Z,0.00
2023-04-28T01:19:28.100Z,0.00
2023-04-28T01:20:28.696Z,0.00
2023-04-28T01:21:29.274Z,0.00
2023-04-28T01:22:29.450Z,0.00
2023-04-28T01:23:30.094Z,0.00
2023-04-28T01:24:30.718Z,0.00
2023-04-28T01:25:31.175Z,0.00
2023-04-28T01:26:31.687Z,0.00
2023-04-28T01:27:32.364Z,0.00
2023-04-28T01:28:32.959Z,0.00
2023-04-28T01:29:33.586Z,0.00
2023-04-28T01:30:34.111Z,0.00
2023-04-28T01:30:42.717Z,0.00
2023-04-28T01:31:43.611Z,0.00
2023-04-28T01:32:44.487Z,0.00
2023-04-28T01:33:45.105Z,0.00
2023-04-28T01:34:45.730Z,0.00
2023-04-28T01:35:46.306Z,0.00
2023-04-28T01:36:46.928Z,0.00
2023-04-28T01:37:47.493Z,0.00
2023-04-28T01:38:48.475Z,0.00
2023-04-28T01:39:49.074Z,0.00
2023-04-28T01:40:49.188Z,0.00
2023-04-28T01:41:00.324Z,0.00
2023-04-28T01:42:00.900Z,0.00
2023-04-28T01:43:01.494Z,0.00
2023-04-28T01:44:02.102Z,0.00
2023-04-28T01:45:02.841Z,0.00
2023-04-28T01:46:04.376Z,0.00
2023-04-28T01:47:03.901Z,0.00
2023-04-28T01:48:04.538Z,0.00
2023-04-28T01:49:05.056Z,0.00
2023-04-28T01:50:05.698Z,0.00
2023-04-28T01:51:06.239Z,0.00
2023-04-28T01:52:06.806Z,0.00
2023-04-28T01:52:15.417Z,0.00
2023-04-28T01:53:16.238Z,0.00
2023-04-28T01:54:17.084Z,0.00
2023-04-28T01:55:17.523Z,0.00
2023-04-28T01:56:18.108Z,0.00
2023-04-28T01:57:19.534Z,0.00
2023-04-28T01:58:19.160Z,0.00
2023-04-28T01:59:19.198Z,0.00
2023-04-28T02:00:19.755Z,0.00
2023-04-28T02:01:20.399Z,0.00
2023-04-28T02:02:20.940Z,0.00
2023-04-28T02:03:21.773Z,0.00
2023-04-28T02:03:30.219Z,0.00
2023-04-28T02:04:31.078Z,0.00
2023-04-28T02:05:31.619Z,0.00
2023-04-28T02:06:32.197Z,0.00
2023-04-28T02:07:32.459Z,0.00
2023-04-28T02:08:32.968Z,0.00
2023-04-28T02:09:33.535Z,0.00
2023-04-28T02:10:34.145Z,0.00
2023-04-28T02:11:34.815Z,0.00
2023-04-28T02:12:35.375Z,0.00
2023-04-28T02:13:36.948Z,0.00
2023-04-28T02:14:36.562Z,0.00
2023-04-28T02:14:45.263Z,0.00
2023-04-28T02:15:45.864Z,0.00
2023-04-28T02:16:46.558Z,0.00
2023-04-28T02:17:47.188Z,0.00
2023-04-28T02:18:47.727Z,0.00
2023-04-28T02:19:48.309Z,0.00
2023-04-28T02:20:48.921Z,0.00
2023-04-28T02:21:49.491Z,0.00
2023-04-28T02:22:51.096Z,0.00
2023-04-28T02:23:50.728Z,0.00
2023-04-28T02:24:51.302Z,0.00
2023-04-28T02:25:00.549Z,0.00
2023-04-28T02:26:01.536Z,0.00
2023-04-28T02:27:02.081Z,0.00
2023-04-28T02:28:03.039Z,0.00
2023-04-28T02:29:03.598Z,0.00
2023-04-28T02:30:04.091Z,0.00
2023-04-28T02:31:04.918Z,0.00
2023-04-28T02:32:05.476Z,0.00
2023-04-28T02:33:06.134Z,0.00
2023-04-28T02:34:06.555Z,0.00
2023-04-28T02:35:07.281Z,0.00
2023-04-28T02:36:07.917Z,0.00
2023-04-28T02:36:23.748Z,0.00
2023-04-28T02:37:24.471Z,0.00
2023-04-28T02:38:25.222Z,0.00
2023-04-28T02:39:25.766Z,0.00
2023-04-28T02:40:26.384Z,0.00
2023-04-28T02:41:26.960Z,0.00
2023-04-28T02:42:27.860Z,0.00
2023-04-28T02:43:28.765Z,0.00
2023-04-28T02:44:29.373Z,0.00
2023-04-28T02:45:31.018Z,0.00
2023-04-28T02:46:31.676Z,0.00
2023-04-28T02:46:43.865Z,0.00
2023-04-28T02:47:44.108Z,0.00
2023-04-28T02:48:44.552Z,0.00
2023-04-28T02:49:45.168Z,0.00
2023-04-28T02:50:45.699Z,0.00
2023-04-28T02:51:46.377Z,0.00
2023-04-28T02:52:48.970Z,0.00
2023-04-28T02:53:46.940Z,0.00
2023-04-28T02:54:47.428Z,0.00
2023-04-28T02:55:48.039Z,0.00
2023-04-28T02:56:48.656Z,0.00
2023-04-28T02:57:49.206Z,0.00
2023-04-28T02:57:57.808Z,0.00
2023-04-28T02:58:59.403Z,0.00
2023-04-28T02:59:58.958Z,0.00
2023-04-28T03:00:59.940Z,0.00
2023-04-28T03:02:00.663Z,0.00
2023-04-28T03:03:01.337Z,0.00
2023-04-28T03:04:02.285Z,0.00
2023-04-28T03:05:03.003Z,0.00
2023-04-28T03:06:03.446Z,0.00
2023-04-28T03:07:04.253Z,0.00
2023-04-28T03:08:04.909Z,0.00
2023-04-28T03:09:05.650Z,0.00
2023-04-28T03:09:14.276Z,0.00
2023-04-28T03:10:14.946Z,0.00
2023-04-28T03:11:15.715Z,0.00
2023-04-28T03:12:16.405Z,0.00
2023-04-28T03:13:17.223Z,0.00
2023-04-28T03:14:17.958Z,0.00
2023-04-28T03:15:18.252Z,0.00
2023-04-28T03:16:19.185Z,0.00
2023-04-28T03:17:19.862Z,0.00
2023-04-28T03:18:20.082Z,0.00
2023-04-28T03:19:20.626Z,0.00
2023-04-28T03:20:21.217Z,0.00
2023-04-28T03:20:30.328Z,0.00
2023-04-28T03:21:30.957Z,0.00
2023-04-28T03:22:31.686Z,0.05
2023-04-28T03:23:32.297Z,0.05
2023-04-28T03:24:32.835Z,0.05
2023-04-28T03:25:33.466Z,0.05
2023-04-28T03:26:34.081Z,0.05
2023-04-28T03:27:34.782Z,0.05
2023-04-28T03:28:35.320Z,0.05
2023-04-28T03:29:35.924Z,0.09
2023-04-28T03:30:36.483Z,0.09
2023-04-28T03:31:37.122Z,0.14
2023-04-28T03:31:45.763Z,0.14
2023-04-28T03:32:46.433Z,0.18
2023-04-28T03:33:47.329Z,0.14
2023-04-28T03:34:47.865Z,0.18
2023-04-28T03:35:48.548Z,0.22
2023-04-28T03:36:48.610Z,0.22
2023-04-28T03:37:49.729Z,0.27
2023-04-28T03:38:49.669Z,0.31
2023-04-28T03:39:50.332Z,0.36
2023-04-28T03:40:50.866Z,0.45
2023-04-28T03:41:52.641Z,0.50
2023-04-28T03:42:03.368Z,0.50
2023-04-28T03:43:04.881Z,0.58
2023-04-28T03:44:04.466Z,0.72
2023-04-28T03:45:05.199Z,0.81
2023-04-28T03:46:05.725Z,1.03
2023-04-28T03:47:06.417Z,1.44
2023-04-28T03:48:07.044Z,1.98
2023-04-28T03:49:07.578Z,2.74
2023-04-28T03:50:08.373Z,3.56
2023-04-28T03:51:08.684Z,4.41
2023-04-28T03:52:10.406Z,5.13
2023-04-28T03:52:19.094Z,5.22
2023-04-28T03:53:19.748Z,5.89
2023-04-28T03:54:20.278Z,6.30
2023-04-28T03:55:20.786Z,6.43
2023-04-28T03:56:21.411Z,6.89
2023-04-28T03:57:22.258Z,7.87
2023-04-28T03:58:23.097Z,9.05
2023-04-28T03:59:23.910Z,10.03
2023-04-28T04:00:24.626Z,11.16
2023-04-28T04:01:26.280Z,12.69
2023-04-28T04:02:25.635Z,14.58
2023-04-28T04:02:37.881Z,15.03
2023-04-28T04:03:38.669Z,16.56
2023-04-28T04:04:39.217Z,18.36
2023-04-28T04:05:40.244Z,22.14
2023-04-28T04:06:40.808Z,27.00
2023-04-28T04:07:41.115Z,31.68
2023-04-28T04:08:41.935Z,36.18
2023-04-28T04:09:42.675Z,40.14
2023-04-28T04:10:43.305Z,44.10
2023-04-28T04:11:44.074Z,47.52
2023-04-28T04:12:44.887Z,52.92
2023-04-28T04:13:45.758Z,58.32
2023-04-28T04:13:54.362Z,59.04
2023-04-28T04:14:55.087Z,63.00
2023-04-28T04:15:55.990Z,66.60
2023-04-28T04:16:56.645Z,68.76
2023-04-28T04:17:57.311Z,72.00
2023-04-28T04:18:58.096Z,76.68
2023-04-28T04:19:59.193Z,82.44
2023-04-28T04:20:58.892Z,88.56
2023-04-28T04:21:59.618Z,95.76
2023-04-28T04:23:00.177Z,105.84
2023-04-28T04:24:01.117Z,113.04
2023-04-28T04:25:01.797Z,119.52
2023-04-28T04:25:11.639Z,120.96
2023-04-28T04:26:12.335Z,128.88
2023-04-28T04:27:13.201Z,130.32
2023-04-28T04:28:13.976Z,132.48
2023-04-28T04:29:14.162Z,140.40
2023-04-28T04:30:15.022Z,153.36
2023-04-28T04:31:15.933Z,167.04
2023-04-28T04:32:16.740Z,176.40
2023-04-28T04:33:17.605Z,182.88
2023-04-28T04:34:18.511Z,188.64
2023-04-28T04:35:18.331Z,205.92
2023-04-28T04:36:18.431Z,236.16
2023-04-28T04:37:18.899Z,267.84
2023-04-28T04:37:27.513Z,272.16
2023-04-28T04:38:27.883Z,306.72
2023-04-28T04:39:29.026Z,348.48
2023-04-28T04:40:28.828Z,411.84
2023-04-28T04:41:28.865Z,506.88
2023-04-28T04:42:29.658Z,593.28
2023-04-28T04:43:30.354Z,679.68
2023-04-28T04:44:30.488Z,714.24
2023-04-28T04:45:31.113Z,679.68
2023-04-28T04:46:31.962Z,633.60
2023-04-28T04:47:32.650Z,601.92
2023-04-28T04:48:33.429Z,604.80
2023-04-28T04:48:44.628Z,607.68
2023-04-28T04:49:45.035Z,665.28
2023-04-28T04:50:45.619Z,754.56
2023-04-28T04:51:46.082Z,892.80
2023-04-28T04:52:46.307Z,915.84
2023-04-28T04:53:46.879Z,910.08
2023-04-28T04:54:47.563Z,835.20
2023-04-28T04:55:47.969Z,754.56
2023-04-28T04:56:49.551Z,691.20
2023-04-28T04:57:49.273Z,633.60
2023-04-28T04:58:49.600Z,561.60
2023-04-28T04:59:50.226Z,480.96
2023-04-28T05:00:01.957Z,463.68
2023-04-28T05:01:03.536Z,406.08
2023-04-28T05:02:03.154Z,406.08
2023-04-28T05:03:04.234Z,460.80
2023-04-28T05:04:04.255Z,478.08
2023-04-28T05:05:16.740Z,486.72
2023-04-28T05:06:04.957Z,498.24
2023-04-28T05:07:05.227Z,538.56
2023-04-28T05:08:06.025Z,570.24
2023-04-28T05:09:06.951Z,532.80
2023-04-28T05:10:07.111Z,460.80
2023-04-28T05:11:07.838Z,397.44
2023-04-28T05:12:08.662Z,388.80
2023-04-28T05:13:09.552Z,420.48
2023-04-28T05:13:29.552Z,434.88
2023-04-28T05:14:30.327Z,478.08
2023-04-28T05:15:31.077Z,547.20
2023-04-28T05:16:31.833Z,650.88
2023-04-28T05:17:32.492Z,731.52
2023-04-28T05:18:33.186Z,771.84
2023-04-28T05:19:33.232Z,789.12
2023-04-28T05:20:34.008Z,829.44
2023-04-28T05:21:34.086Z,840.96
2023-04-28T05:22:34.951Z,789.12
2023-04-28T05:23:35.244Z,702.72
2023-04-28T05:24:35.956Z,619.20
2023-04-28T05:25:59.869Z,596.16
2023-04-28T05:26:59.427Z,650.88
2023-04-28T05:28:00.046Z,699.84
2023-04-28T05:29:00.827Z,760.32
2023-04-28T05:30:01.726Z,881.28
2023-04-28T05:31:01.981Z,1152.00
2023-04-28T05:32:02.596Z,1313.28
2023-04-28T05:33:02.746Z,1468.80
2023-04-28T05:34:03.623Z,1566.72
2023-04-28T05:35:04.458Z,1509.12
2023-04-28T05:36:05.673Z,1411.20
2023-04-28T05:37:05.432Z,1307.52
2023-04-28T05:37:14.118Z,1290.24
2023-04-28T05:38:14.484Z,1249.92
2023-04-28T05:39:16.013Z,1215.36
2023-04-28T05:40:15.716Z,1198.08
2023-04-28T05:41:16.334Z,1209.60
2023-04-28T05:42:17.318Z,1301.76
2023-04-28T05:43:17.658Z,1440.00
2023-04-28T05:44:18.516Z,1589.76
2023-04-28T05:45:18.669Z,1578.24
2023-04-28T05:46:30.142Z,1399.68
2023-04-28T05:47:20.836Z,1353.60
2023-04-28T05:48:20.455Z,1434.24
2023-04-28T05:49:21.033Z,1370.88
2023-04-28T05:49:29.730Z,1353.60
2023-04-28T05:50:29.932Z,1192.32
2023-04-28T05:51:30.546Z,1111.68
2023-04-28T05:52:31.294Z,1128.96
2023-04-28T05:53:32.033Z,1140.48
2023-04-28T05:54:32.806Z,1232.64
2023-04-28T05:55:33.437Z,1468.80
2023-04-28T05:56:34.000Z,1647.36
2023-04-28T05:57:45.774Z,1739.52
2023-04-28T05:58:35.470Z,1704.96
2023-04-28T05:59:35.514Z,1612.80
2023-04-28T05:59:49.644Z,1601.28
2023-04-28T06:00:48.652Z,1509.12
2023-04-28T06:01:49.118Z,1497.60
2023-04-28T06:02:49.284Z,1843.20
2023-04-28T06:03:49.752Z,2292.48
2023-04-28T06:04:50.255Z,2661.12
2023-04-28T06:05:50.685Z,3087.36
2023-04-28T06:06:51.300Z,3294.72
2023-04-28T06:07:53.711Z,3156.48
2023-04-28T06:08:52.477Z,2856.96
2023-04-28T06:09:52.904Z,2638.08
2023-04-28T06:10:53.660Z,2534.40
2023-04-28T06:11:54.274Z,2453.76
2023-04-28T06:12:07.388Z,2453.76
2023-04-28T06:13:08.246Z,2545.92
2023-04-28T06:14:08.975Z,2545.92
2023-04-28T06:15:09.088Z,2269.44
2023-04-28T06:16:09.771Z,2039.04
2023-04-28T06:17:10.117Z,2407.68
2023-04-28T06:18:10.984Z,2810.88
2023-04-28T06:19:11.492Z,2799.36
2023-04-28T06:20:11.735Z,2453.76
2023-04-28T06:21:12.485Z,2292.48
2023-04-28T06:22:12.905Z,2350.08
2023-04-28T06:23:13.316Z,2419.20
2023-04-28T06:23:23.014Z,2419.20
2023-04-28T06:24:23.959Z,2476.80
2023-04-28T06:25:24.588Z,2730.24
2023-04-28T06:26:25.208Z,2891.52
2023-04-28T06:27:25.448Z,2799.36
2023-04-28T06:28:25.495Z,2718.72
2023-04-28T06:29:25.634Z,2937.60
2023-04-28T06:30:26.354Z,3248.64
2023-04-28T06:31:26.589Z,3294.72
2023-04-28T06:32:27.535Z,3340.80
2023-04-28T06:33:27.513Z,3456.00
2023-04-28T06:34:30.128Z,3594.24
2023-04-28T06:34:43.382Z,3571.20
2023-04-28T06:35:44.457Z,3363.84
2023-04-28T06:36:44.386Z,3225.60
2023-04-28T06:37:45.113Z,3432.96
2023-04-28T06:38:46.719Z,3939.84
2023-04-28T06:39:46.389Z,4492.80
2023-04-28T06:40:47.292Z,4746.24
2023-04-28T06:41:48.030Z,4861.44
2023-04-28T06:42:48.848Z,5022.72
2023-04-28T06:43:49.411Z,5114.88
2023-04-28T06:44:50.130Z,5045.76
2023-04-28T06:45:02.056Z,5022.72
2023-04-28T06:46:02.664Z,4907.52
2023-04-28T06:47:02.846Z,5184.00
2023-04-28T06:48:03.710Z,5990.40
2023-04-28T06:49:04.304Z,7096.32
2023-04-28T06:50:05.105Z,7879.68
2023-04-28T06:51:06.008Z,6865.92
2023-04-28T06:52:06.284Z,6912.00
2023-04-28T06:53:07.009Z,6912.00
2023-04-28T06:54:07.439Z,6727.68
2023-04-28T06:55:07.527Z,6773.76
2023-04-28T06:56:09.819Z,6819.84
2023-04-28T06:56:20.574Z,6819.84
2023-04-28T06:57:20.308Z,6912.00
2023-04-28T06:58:20.985Z,6819.84
2023-04-28T06:59:21.513Z,6635.52
2023-04-28T07:00:22.193Z,6819.84
2023-04-28T07:01:22.466Z,6266.88
2023-04-28T07:02:22.668Z,5667.84
2023-04-28T07:03:22.611Z,4861.44
2023-04-28T07:04:23.553Z,4055.04
2023-04-28T07:05:23.647Z,3479.04
2023-04-28T07:06:24.265Z,3317.76
2023-04-28T07:07:25.069Z,3479.04
2023-04-28T07:08:25.108Z,3778.56
2023-04-28T07:08:38.233Z,3870.72
2023-04-28T07:09:38.682Z,4170.24
2023-04-28T07:11:01.949Z,5207.04
2023-04-28T07:12:02.391Z,6497.28
2023-04-28T07:13:03.191Z,7787.52
2023-04-28T07:14:03.825Z,6635.52
2023-04-28T07:15:04.684Z,7557.12
2023-04-28T07:16:04.992Z,9308.16
2023-04-28T07:17:05.011Z,10644.48
2023-04-28T07:18:05.126Z,11796.48
2023-04-28T07:19:06.119Z,10644.48
2023-04-28T07:20:05.969Z,8985.60
2023-04-28T07:21:06.901Z,9538.56
2023-04-28T07:22:07.732Z,10368.00
2023-04-28T07:22:20.060Z,10045.44
2023-04-28T07:23:20.944Z,6773.76
2023-04-28T07:24:21.263Z,6543.36
2023-04-28T07:25:21.677Z,7741.44
2023-04-28T07:26:22.060Z,7925.76
2023-04-28T07:27:22.569Z,7649.28
2023-04-28T07:28:22.976Z,7603.20
2023-04-28T07:29:23.180Z,8017.92
2023-04-28T07:30:27.807Z,9123.84
2023-04-28T07:31:24.390Z,10368.00
2023-04-28T07:32:24.501Z,10045.44
2023-04-28T07:33:25.254Z,10229.76
2023-04-28T07:34:26.096Z,9538.56
2023-04-28T07:35:26.814Z,9216.00
2023-04-28T07:36:27.613Z,9861.12
2023-04-28T07:37:28.342Z,11335.68
2023-04-28T07:37:40.018Z,11658.24
2023-04-28T07:38:40.908Z,12349.44
2023-04-28T07:39:41.225Z,11013.12
2023-04-28T07:40:41.367Z,10552.32
2023-04-28T07:41:41.535Z,11059.20
2023-04-28T07:42:41.697Z,13547.52
2023-04-28T07:43:42.487Z,16496.64
2023-04-28T07:44:42.888Z,16773.12
2023-04-28T07:45:43.711Z,14653.44
2023-04-28T07:46:44.339Z,13916.16
2023-04-28T07:47:47.320Z,12810.24
2023-04-28T07:48:45.475Z,15390.72
2023-04-28T07:48:58.947Z,15667.20
2023-04-28T07:49:59.068Z,14469.12
2023-04-28T07:50:59.594Z,14376.96
2023-04-28T07:51:59.610Z,15851.52
2023-04-28T07:53:00.431Z,10045.44
2023-04-28T07:54:02.644Z,8939.52
2023-04-28T07:55:03.117Z,10736.64
2023-04-28T07:56:03.987Z,11105.28
2023-04-28T07:57:03.720Z,11566.08
2023-04-28T07:58:04.174Z,12072.96
2023-04-28T07:59:05.003Z,10828.80
2023-04-28T08:00:05.836Z,10137.60
2023-04-28T08:01:06.190Z,9768.96
2023-04-28T08:02:07.664Z,9768.96
2023-04-28T08:03:10.336Z,10552.32
2023-04-28T08:04:09.289Z,13271.04
2023-04-28T08:04:22.713Z,13547.52
2023-04-28T08:05:22.190Z,13547.52
2023-04-28T08:06:22.006Z,15667.20
2023-04-28T08:07:22.877Z,17602.56
2023-04-28T08:08:23.713Z,18984.96
2023-04-28T08:09:24.523Z,16680.96
2023-04-28T08:10:24.597Z,13731.84
2023-04-28T08:11:25.304Z,13178.88
2023-04-28T08:12:26.126Z,14284.80
2023-04-28T08:13:26.297Z,15943.68
2023-04-28T08:14:27.975Z,18339.84
2023-04-28T08:15:28.039Z,22579.20
2023-04-28T08:16:28.517Z,19261.44
2023-04-28T08:17:30.551Z,17510.40
2023-04-28T08:18:29.810Z,17049.60
2023-04-28T08:18:41.530Z,16957.44
2023-04-28T08:19:41.555Z,16312.32
2023-04-28T08:20:42.298Z,15114.24
2023-04-28T08:21:43.237Z,13271.04
2023-04-28T08:22:43.412Z,12441.60
2023-04-28T08:23:43.885Z,13271.04
2023-04-28T08:24:44.038Z,14284.80
2023-04-28T08:25:44.813Z,14653.44
2023-04-28T08:26:45.061Z,15298.56
2023-04-28T08:27:45.198Z,15114.24
2023-04-28T08:28:46.021Z,14100.48
2023-04-28T08:29:46.638Z,13731.84
2023-04-28T08:30:46.779Z,14929.92
2023-04-28T08:30:58.862Z,15298.56
2023-04-28T08:31:59.677Z,17049.60
2023-04-28T08:33:00.182Z,17786.88
2023-04-28T08:34:00.921Z,18155.52
2023-04-28T08:35:01.739Z,16220.16
2023-04-28T08:36:02.435Z,13824.00
2023-04-28T08:37:03.005Z,11381.76
2023-04-28T08:38:03.991Z,10920.96
2023-04-28T08:39:04.328Z,11243.52
2023-04-28T08:40:04.857Z,10782.72
2023-04-28T08:41:05.011Z,9676.80
2023-04-28T08:42:05.666Z,9446.40
2023-04-28T08:42:17.287Z,9584.64
2023-04-28T08:43:21.051Z,10506.24
2023-04-28T08:44:18.855Z,10736.64
2023-04-28T08:45:19.183Z,11335.68
2023-04-28T08:46:19.256Z,11520.00
2023-04-28T08:47:19.950Z,11335.68
2023-04-28T08:48:20.758Z,11059.20
2023-04-28T08:49:20.947Z,12533.76
2023-04-28T08:50:21.596Z,14008.32
2023-04-28T08:52:00.858Z,14745.60
2023-04-28T08:53:00.974Z,14376.96
2023-04-28T08:55:01.878Z,16312.32
2023-04-28T08:56:03.099Z,17049.60
2023-04-28T08:57:02.986Z,21288.96
2023-04-28T08:58:03.815Z,25251.84
2023-04-28T08:59:04.464Z,23592.96
2023-04-28T09:00:04.705Z,24145.92
2023-04-28T09:01:05.537Z,23592.96
2023-04-28T09:02:05.510Z,31887.36
2023-04-28T09:03:06.120Z,31887.36
2023-04-28T09:03:23.284Z,31887.36
2023-04-28T09:04:23.654Z,32624.64
2023-04-28T09:05:24.446Z,32993.28
2023-04-28T09:06:24.948Z,50503.68
2023-04-28T09:07:25.164Z,39813.12
2023-04-28T09:08:25.735Z,27095.04
2023-04-28T09:09:26.650Z,54927.36
2023-04-28T09:10:27.624Z,37601.28
2023-04-28T09:11:27.916Z,56401.92
2023-04-28T09:12:29.133Z,61562.88
2023-04-28T09:13:29.021Z,46448.64
2023-04-28T09:13:37.715Z,33546.24
2023-04-28T09:14:37.857Z,20459.52
2023-04-28T09:15:38.850Z,17602.56
2023-04-28T09:16:39.061Z,16865.28
2023-04-28T09:17:39.264Z,15943.68
2023-04-28T09:18:39.726Z,15943.68
2023-04-28T09:19:40.202Z,17233.92
2023-04-28T09:20:40.744Z,19906.56
2023-04-28T09:21:41.376Z,26910.72
2023-04-28T09:22:42.331Z,32071.68
2023-04-28T09:23:42.793Z,43315.20
2023-04-28T09:23:58.266Z,49029.12
2023-04-28T09:24:59.225Z,26173.44
2023-04-28T09:25:59.387Z,19353.60
2023-04-28T09:27:01.681Z,16588.80
2023-04-28T09:28:02.829Z,15206.40
2023-04-28T09:29:01.262Z,13178.88
2023-04-28T09:30:01.527Z,12994.56
2023-04-28T09:31:02.452Z,11980.80
2023-04-28T09:32:02.619Z,11658.24
2023-04-28T09:33:03.643Z,11796.48
2023-04-28T09:34:03.894Z,11520.00
2023-04-28T09:35:04.119Z,11427.84
2023-04-28T09:36:05.021Z,10874.88
2023-04-28T09:37:05.131Z,10644.48
2023-04-28T09:37:14.034Z,10690.56
2023-04-28T09:38:14.871Z,11059.20
2023-04-28T09:39:16.819Z,13363.20
2023-04-28T09:40:15.902Z,16035.84
2023-04-28T09:41:15.994Z,16588.80
2023-04-28T09:42:16.846Z,16312.32
2023-04-28T09:43:21.965Z,15390.72
2023-04-28T09:44:18.443Z,13916.16
2023-04-28T09:45:24.844Z,12902.40
2023-04-28T09:46:19.096Z,16220.16
2023-04-28T09:47:19.954Z,20551.68
2023-04-28T09:48:20.176Z,24883.20
2023-04-28T09:48:30.275Z,24883.20
2023-04-28T09:49:31.033Z,24883.20
2023-04-28T09:50:31.737Z,25804.80
2023-04-28T09:51:32.575Z,25067.52
2023-04-28T09:52:33.284Z,25067.52
2023-04-28T09:53:33.934Z,39997.44
2023-04-28T09:54:34.493Z,28200.96
2023-04-28T09:55:35.037Z,23777.28
2023-04-28T09:56:36.009Z,34652.16
2023-04-28T09:57:36.644Z,52715.52
2023-04-28T09:58:37.322Z,22855.68
2023-04-28T09:58:49.045Z,22394.88
2023-04-28T09:59:49.043Z,28569.60
2023-04-28T10:00:49.752Z,25436.16
2023-04-28T10:01:49.908Z,26726.40
2023-04-28T10:02:49.952Z,27279.36
2023-04-28T10:03:50.705Z,30597.12
2023-04-28T10:04:51.450Z,31887.36
2023-04-28T10:05:51.889Z,25989.12
2023-04-28T10:06:52.054Z,23500.80
2023-04-28T10:07:52.747Z,25989.12
2023-04-28T10:08:52.946Z,24883.20
2023-04-28T10:09:53.619Z,23592.96
2023-04-28T10:10:02.736Z,29859.84
2023-04-28T10:11:03.378Z,19537.92
2023-04-28T10:12:05.336Z,20551.68
2023-04-28T10:13:05.170Z,21012.48
2023-04-28T10:14:05.919Z,18616.32
2023-04-28T10:15:06.628Z,18155.52
2023-04-28T10:16:07.294Z,17510.40
2023-04-28T10:17:08.258Z,16865.28
2023-04-28T10:18:09.016Z,17879.04
2023-04-28T10:19:09.853Z,18524.16
2023-04-28T10:20:10.452Z,18524.16
2023-04-28T10:21:11.238Z,18708.48
2023-04-28T10:21:23.342Z,19261.44
2023-04-28T10:22:23.893Z,21381.12
2023-04-28T10:23:24.076Z,19814.40
2023-04-28T10:24:24.939Z,17879.04
2023-04-28T10:25:25.932Z,17141.76
2023-04-28T10:26:26.840Z,16312.32
2023-04-28T10:27:27.465Z,17786.88
2023-04-28T10:28:28.083Z,18616.32
2023-04-28T10:29:28.129Z,60088.32
2023-04-28T10:30:29.956Z,54558.72
2023-04-28T10:31:29.655Z,54190.08
2023-04-28T10:31:38.247Z,54927.36
2023-04-28T10:32:38.368Z,53452.80
2023-04-28T10:33:39.109Z,54927.36
2023-04-28T10:34:39.216Z,32440.32
2023-04-28T10:35:39.865Z,40366.08
2023-04-28T10:36:40.460Z,55296.00
2023-04-28T10:37:41.658Z,53084.16
2023-04-28T10:38:41.310Z,55296.00
2023-04-28T10:39:41.527Z,57876.48
2023-04-28T10:40:42.124Z,61194.24
2023-04-28T10:41:43.718Z,51978.24
2023-04-28T10:42:43.092Z,51978.24
2023-04-28T10:42:51.869Z,48291.84
2023-04-28T10:43:52.143Z,27279.36
2023-04-28T10:44:52.897Z,27279.36
2023-04-28T10:45:56.483Z,32993.28
2023-04-28T10:46:54.384Z,32808.96
2023-04-28T10:47:55.251Z,56401.92
2023-04-28T10:48:55.563Z,54558.72
2023-04-28T10:49:56.448Z,52346.88
2023-04-28T10:50:57.181Z,50503.68
2023-04-28T10:51:57.836Z,54190.08
2023-04-28T10:52:59.119Z,53821.44
2023-04-28T10:53:59.019Z,39813.12
2023-04-28T10:54:07.686Z,45711.36
2023-04-28T10:55:19.371Z,56770.56
2023-04-28T10:56:08.785Z,52715.52
2023-04-28T10:57:09.531Z,31150.08
2023-04-28T10:58:10.053Z,55296.00
2023-04-28T10:59:10.718Z,54927.36
2023-04-28T11:00:11.564Z,45342.72
2023-04-28T11:01:12.233Z,40181.76
2023-04-28T11:02:13.107Z,43499.52
2023-04-28T11:03:14.112Z,42393.60
2023-04-28T11:04:14.842Z,56770.56
2023-04-28T11:05:15.658Z,56033.28
2023-04-28T11:05:26.840Z,56033.28
2023-04-28T11:06:27.527Z,55664.64
2023-04-28T11:07:28.374Z,53821.44
2023-04-28T11:08:29.161Z,54558.72
2023-04-28T11:09:29.321Z,56033.28
2023-04-28T11:10:29.378Z,56033.28
2023-04-28T11:11:30.085Z,57876.48
2023-04-28T11:12:30.753Z,58982.40
2023-04-28T11:13:31.493Z,59351.04
2023-04-28T11:14:32.136Z,49766.40
2023-04-28T11:15:32.981Z,54558.72
2023-04-28T11:16:33.730Z,57139.20
2023-04-28T11:16:43.985Z,58982.40
2023-04-28T11:17:44.323Z,55664.64
2023-04-28T11:18:44.702Z,56770.56
2023-04-28T11:19:45.361Z,58613.76
2023-04-28T11:20:45.907Z,16035.84
2023-04-28T11:21:46.884Z,55664.64
2023-04-28T11:22:47.728Z,38154.24
2023-04-28T11:23:48.466Z,37416.96
2023-04-28T11:24:48.532Z,30228.48
2023-04-28T11:25:48.975Z,24698.88
2023-04-28T11:26:49.072Z,54927.36
2023-04-28T11:27:49.845Z,62668.80
2023-04-28T11:27:58.527Z,62300.16
2023-04-28T11:28:59.468Z,58982.40
2023-04-28T11:29:58.841Z,58613.76
2023-04-28T11:30:59.450Z,37048.32
2023-04-28T11:32:00.291Z,44052.48
2023-04-28T11:33:00.819Z,31150.08
2023-04-28T11:34:01.547Z,34652.16
2023-04-28T11:35:02.404Z,55664.64
2023-04-28T11:36:03.170Z,20551.68
2023-04-28T11:37:03.364Z,18432.00
2023-04-28T11:38:03.403Z,19169.28
2023-04-28T11:39:03.502Z,20367.36
2023-04-28T11:40:04.180Z,20367.36
2023-04-28T11:41:04.214Z,19537.92
2023-04-28T11:41:12.819Z,19537.92
2023-04-28T11:42:12.977Z,20920.32
2023-04-28T11:43:13.722Z,21288.96
2023-04-28T11:44:14.721Z,21749.76